Airport View

Enter AWOS ICAO identifier for current METAR.

ex. KFNL

KMCX 170945Z AUTO 00000KT 10SM CLR M03/M04 A3016 RMK AO2 T10301041

17 Nov 2019 09:31

Frequency: 124.05

Phone: 574-583-0531

Other Area AWOS: KGGP - KLAF - KRZL - KFKR

TAF KLAF 170520Z 1706/1806 09008KT P6SM SKC FM171400 VRB03KT P6SM BKN200 AMD LTD TO CLD VIS AND WIND TIL 171400